Time;durP1;ratioP1;P1;durP2;ratioP2;P2;SDS_P1;SDS_P2;PMS_P1;PMS_P2;Temp;Humidity;BMP_temperature;BMP_pressure;BME280_temperature;BME280_humidity;BME280_pressure;Samples;Min_cycle;Max_cycle;Signal;HPM_P1;HPM_P2
2021/07/01 00:02:10;;;;;;;5.92;5.22;;;;;;;19.92;63.75;100015.43;1705300;81;25871;-76
2021/07/01 00:04:37;;;;;;;6.10;4.62;;;;;;;19.84;63.83;100001.80;1705807;82;26741;-77
2021/07/01 00:07:05;;;;;;;9.73;7.47;;;;;;;19.77;63.85;100006.64;1706213;82;25843;-77
2021/07/01 00:09:32;;;;;;;10.08;7.08;;;;;;;19.72;64.24;100016.63;1682523;82;28218;-77
2021/07/01 00:12:00;;;;;;;11.12;6.67;;;;;;;19.68;64.47;100006.83;1705739;82;26045;-77
2021/07/01 00:14:27;;;;;;;8.73;6.15;;;;;;;19.65;64.73;100002.47;1726903;82;25806;-77
2021/07/01 00:16:55;;;;;;;9.35;5.83;;;;;;;19.62;64.96;100002.44;1694705;82;26096;-77
2021/07/01 00:19:23;;;;;;;6.33;5.60;;;;;;;19.56;64.99;100008.09;1682544;82;25762;-77
2021/07/01 00:21:51;;;;;;;6.75;5.75;;;;;;;19.49;65.09;100000.69;1702165;82;27580;-77
2021/07/01 00:24:18;;;;;;;5.95;5.35;;;;;;;19.43;65.06;99997.12;1726971;82;25899;-77
2021/07/01 00:26:46;;;;;;;9.33;6.00;;;;;;;19.39;65.22;99998.73;1694366;82;25910;-76
2021/07/01 00:29:13;;;;;;;8.20;5.83;;;;;;;19.36;65.23;99992.97;1659257;82;25902;-77
2021/07/01 00:31:41;;;;;;;8.23;6.05;;;;;;;19.33;65.32;99992.95;1701612;82;25780;-77
2021/07/01 00:34:09;;;;;;;6.72;6.12;;;;;;;19.27;65.51;99998.02;1726973;82;27624;-77
2021/07/01 00:36:36;;;;;;;6.72;6.12;;;;;;;19.25;65.80;100000.18;1694751;82;25960;-77
2021/07/01 00:39:04;;;;;;;6.55;5.95;;;;;;;19.13;65.91;100004.43;1659685;82;26571;-77
2021/07/01 00:41:32;;;;;;;9.38;6.83;;;;;;;19.03;66.25;99999.44;1702086;82;25843;-77
2021/07/01 00:44:02;;;;;;;8.50;6.60;;;;;;;18.94;66.37;99999.08;1724033;81;25898;-77
2021/07/01 00:46:31;;;;;;;9.08;6.72;;;;;;;18.93;66.62;99999.31;1696889;82;27380;-77
2021/07/01 00:48:59;;;;;;;7.83;7.03;;;;;;;18.91;66.71;99987.36;1656653;82;25752;-77
2021/07/01 00:51:27;;;;;;;7.80;7.03;;;;;;;18.90;66.78;99987.63;1656515;82;25797;-76
2021/07/01 00:53:54;;;;;;;8.35;6.85;;;;;;;18.87;66.83;99978.63;1731212;82;25895;-77
2021/07/01 00:56:21;;;;;;;8.55;6.90;;;;;;;18.84;66.79;99966.95;1701971;82;26023;-77
2021/07/01 00:58:55;;;;;;;7.00;6.30;;;;;;;18.82;66.84;99972.61;1670672;82;27586;-77
2021/07/01 01:01:23;;;;;;;7.67;6.83;;;;;;;18.79;66.77;99972.31;1702032;82;25803;-77
2021/07/01 01:03:50;;;;;;;8.90;6.97;;;;;;;18.75;66.92;99969.83;1731504;82;25729;-76
2021/07/01 01:06:18;;;;;;;8.38;7.37;;;;;;;18.73;66.99;99966.02;1678596;82;25809;-77
2021/07/01 01:08:46;;;;;;;8.35;7.55;;;;;;;18.71;66.88;99964.07;1624473;85;25873;-77
2021/07/01 01:11:15;;;;;;;9.33;6.55;;;;;;;18.69;67.07;99963.51;1613198;85;27497;-77
2021/07/01 01:13:46;;;;;;;8.55;7.22;;;;;;;18.65;67.17;99958.31;1664560;85;25804;-77
2021/07/01 01:16:32;;;;;;;7.67;6.97;;;;;;;18.62;67.43;99964.80;1645122;85;25830;-77
2021/07/01 01:18:59;;;;;;;8.75;7.67;;;;;;;18.56;67.32;99957.16;1624282;85;25958;-77
2021/07/01 01:21:29;;;;;;;16.15;8.28;;;;;;;18.57;67.46;99954.70;1645660;85;25889;-77
2021/07/01 01:24:00;;;;;;;8.68;7.78;;;;;;;18.53;67.46;99954.94;1703472;84;28272;-76
2021/07/01 01:26:27;;;;;;;;;;;;;;;18.51;67.53;99969.81;1649497;85;25926;-76
2021/07/01 01:28:55;;;;;;;8.75;7.12;;;;;;;18.48;67.79;99967.62;1654353;84;25854;-77
2021/07/01 01:31:24;;;;;;;8.35;7.55;;;;;;;18.41;67.94;99974.56;1673025;85;25894;-77
2021/07/01 01:33:53;;;;;;;8.55;7.72;;;;;;;18.41;68.05;99975.36;1654733;84;26464;-77
2021/07/01 01:36:20;;;;;;;12.07;8.65;;;;;;;18.42;68.19;99970.77;1673441;85;28163;-77
2021/07/01 01:38:49;;;;;;;9.48;8.58;;;;;;;18.39;68.25;99974.00;1654605;84;25856;-77
2021/07/01 01:41:26;;;;;;;11.05;7.90;;;;;;;18.36;68.21;99966.36;1653979;85;26186;-77
2021/07/01 01:43:55;;;;;;;8.17;7.43;;;;;;;18.29;68.03;99976.03;1675693;84;26163;-77
2021/07/01 01:46:22;;;;;;;11.90;8.48;;;;;;;18.24;68.05;99971.89;1683662;83;26117;-77
2021/07/01 01:48:54;;;;;;;9.45;8.55;;;;;;;18.25;68.33;99980.33;1663597;83;27890;-77
2021/07/01 01:51:22;;;;;;;11.48;8.70;;;;;;;18.25;68.55;99975.43;1711618;83;25273;-77
2021/07/01 01:53:51;;;;;;;9.60;8.70;;;;;;;18.23;68.57;99968.91;1687578;83;25882;-77
2021/07/01 01:56:21;;;;;;;9.55;8.63;;;;;;;18.21;68.70;99975.66;1683320;83;26237;-76
2021/07/01 01:58:50;;;;;;;11.05;8.85;;;;;;;18.18;68.70;99970.20;1715665;83;25874;-76
2021/07/01 02:01:35;;;;;;;12.78;8.23;;;;;;;18.13;68.69;99972.86;1652353;83;27477;-77
2021/07/01 02:04:04;;;;;;;9.15;8.28;;;;;;;18.11;68.77;99974.97;1664846;83;25865;-77
2021/07/01 02:06:34;;;;;;;11.57;10.48;;;;;;;18.07;68.63;99967.62;1680166;83;25781;-76
2021/07/01 02:09:03;;;;;;;11.08;9.68;;;;;;;18.04;68.92;99970.28;1716062;83;25721;-77
2021/07/01 02:11:31;;;;;;;11.12;9.05;;;;;;;17.98;68.86;99973.17;1686770;83;25965;-77
2021/07/01 02:13:59;;;;;;;9.63;8.45;;;;;;;17.92;68.93;99969.56;1660470;84;28187;-77
2021/07/01 02:16:47;;;;;;;10.40;7.75;;;;;;;17.88;69.08;99971.13;1625940;84;25979;-76
2021/07/01 02:19:14;;;;;;;8.48;7.10;;;;;;;17.80;69.04;99974.27;1671969;84;25829;-76
2021/07/01 02:21:42;;;;;;;7.45;6.70;;;;;;;17.76;69.00;99985.84;1671922;84;25834;-77
2021/07/01 02:24:09;;;;;;;7.72;6.85;;;;;;;17.71;68.87;99995.54;1672347;84;26502;-77
2021/07/01 02:26:37;;;;;;;8.35;7.55;;;;;;;17.66;68.73;99993.30;1695820;84;28146;-76
2021/07/01 02:29:04;;;;;;;8.68;6.90;;;;;;;17.60;68.64;99988.84;1690297;84;26555;-76
2021/07/01 02:31:33;;;;;;;8.10;7.30;;;;;;;17.53;68.62;99989.57;1671696;84;25735;-76
2021/07/01 02:34:00;;;;;;;11.88;7.62;;;;;;;17.45;68.59;99986.69;1627715;84;25536;-77
2021/07/01 02:36:35;;;;;;;24.25;13.60;;;;;;;17.40;68.98;99986.63;1649660;84;25757;-76
2021/07/01 02:39:21;;;;;;;28.17;16.35;;;;;;;17.36;69.32;99989.55;1690344;84;27485;-77
2021/07/01 02:41:49;;;;;;;27.10;16.60;;;;;;;17.36;69.34;99992.77;1671657;84;26715;-76
2021/07/01 02:44:16;;;;;;;21.50;14.60;;;;;;;17.32;69.44;99991.63;1672921;84;25833;-76
2021/07/01 02:47:03;;;;;;;10.80;9.43;;;;;;;17.31;69.66;99983.20;1704708;83;26464;-77
2021/07/01 02:49:31;;;;;;;12.15;10.18;;;;;;;17.31;69.97;99978.62;1698148;83;25832;-76
2021/07/01 02:52:00;;;;;;;10.40;9.30;;;;;;;17.29;69.85;99978.05;1680618;83;27627;-77
2021/07/01 02:54:28;;;;;;;10.05;9.10;;;;;;;17.27;69.87;99978.82;1650907;84;25948;-76
2021/07/01 02:56:55;;;;;;;9.38;8.28;;;;;;;17.26;69.94;99979.88;1692910;82;25956;-76
2021/07/01 02:59:22;;;;;;;8.75;7.85;;;;;;;17.26;69.79;99983.11;1718984;82;25466;-77
2021/07/01 03:02:09;;;;;;;9.80;8.90;;;;;;;17.24;69.67;99977.12;1682436;84;25865;-76
2021/07/01 03:04:41;;;;;;;10.43;9.33;;;;;;;17.23;69.93;99983.61;1659228;84;27534;-76
2021/07/01 03:07:08;;;;;;;13.55;10.95;;;;;;;17.23;70.08;99987.67;1657687;84;26393;-77
2021/07/01 03:09:35;;;;;;;16.48;9.55;;;;;;;17.20;70.35;99990.33;1712066;82;25793;-76
2021/07/01 03:12:03;;;;;;;16.87;10.38;;;;;;;17.14;70.20;99991.84;1656560;83;26762;-76
2021/07/01 03:14:31;;;;;;;17.30;11.10;;;;;;;17.12;70.38;99989.91;1676281;84;25944;-76
2021/07/01 03:16:59;;;;;;;20.65;10.63;;;;;;;17.13;70.43;99991.01;1696194;82;27545;-77
2021/07/01 03:19:27;;;;;;;22.58;13.22;;;;;;;17.12;70.55;100000.20;1713210;82;25769;-77
2021/07/01 03:22:05;;;;;;;19.35;12.10;;;;;;;17.10;70.67;100001.52;1667850;83;26036;-77
2021/07/01 03:24:33;;;;;;;17.80;12.58;;;;;;;17.14;71.00;100013.48;1690105;83;26572;-76
2021/07/01 03:27:04;;;;;;;20.43;12.23;;;;;;;17.24;71.44;100010.95;1694231;83;26037;-76
2021/07/01 03:29:32;;;;;;;17.45;12.47;;;;;;;17.33;71.44;100008.14;1716924;83;27493;-77
2021/07/01 03:32:00;;;;;;;18.73;12.75;;;;;;;17.44;71.56;100012.67;1666060;83;25733;-76
2021/07/01 03:34:27;;;;;;;16.48;13.22;;;;;;;17.55;71.58;100013.16;1690051;83;25776;-77
2021/07/01 03:36:54;;;;;;;15.65;12.15;;;;;;;17.66;71.58;100014.97;1694240;83;25827;-76
2021/07/01 03:39:40;;;;;;;17.02;13.03;;;;;;;17.76;71.61;100012.41;1716765;83;25754;-77
2021/07/01 03:42:10;;;;;;;16.30;12.43;;;;;;;17.81;71.62;100008.44;1665337;83;26996;-76
2021/07/01 03:44:37;;;;;;;14.15;10.78;;;;;;;17.85;71.70;100009.58;1665915;83;25774;-76
2021/07/01 03:47:10;;;;;;;11.43;10.20;;;;;;;17.89;71.68;100004.47;1693928;83;25900;-76
2021/07/01 03:49:37;;;;;;;12.73;10.43;;;;;;;17.93;71.81;100007.80;1716907;83;26255;-76
2021/07/01 03:52:23;;;;;;;11.38;10.03;;;;;;;17.98;71.83;100001.62;1669502;83;25902;-76
2021/07/01 03:54:51;;;;;;;12.85;9.80;;;;;;;18.01;71.78;100000.59;1689718;83;27562;-76
2021/07/01 03:57:19;;;;;;;13.03;11.63;;;;;;;18.06;71.87;100006.61;1647879;83;25973;-76
2021/07/01 03:59:49;;;;;;;12.63;11.25;;;;;;;18.13;72.31;99997.78;1689500;83;25615;-76
2021/07/01 04:02:35;;;;;;;16.80;13.32;;;;;;;18.21;72.39;100000.05;1679206;83;25937;-76
2021/07/01 04:05:05;;;;;;;13.18;11.88;;;;;;;18.31;72.69;99996.94;1682342;83;26248;-77
2021/07/01 04:07:33;;;;;;;16.05;12.28;;;;;;;18.44;72.90;100002.55;1684734;81;27499;-76
2021/07/01 04:10:07;;;;;;;15.45;12.15;;;;;;;18.57;72.84;100007.59;1708216;82;26443;-77
2021/07/01 04:12:35;;;;;;;17.65;13.28;;;;;;;18.71;72.78;100009.41;1700762;82;25924;-77
2021/07/01 04:15:21;;;;;;;14.05;11.93;;;;;;;18.81;72.98;100009.50;1716408;83;25820;-77
2021/07/01 04:18:14;;;;;;;13.18;11.25;;;;;;;18.97;73.28;100008.05;1686593;83;26703;-77
2021/07/01 04:21:00;;;;;;;13.78;10.85;;;;;;;19.15;73.06;100008.23;1713585;83;27542;-77
2021/07/01 04:23:45;;;;;;;14.30;11.08;;;;;;;19.29;72.93;99997.23;1670395;83;25901;-77
2021/07/01 04:26:32;;;;;;;12.03;10.18;;;;;;;19.46;72.91;99991.72;1747480;82;25714;-77
2021/07/01 04:29:00;;;;;;;10.45;9.40;;;;;;;19.60;72.64;99993.73;1689590;83;25943;-77
2021/07/01 04:31:27;;;;;;;13.60;10.05;;;;;;;19.71;72.46;99996.81;1747507;82;25965;-77
2021/07/01 04:33:56;;;;;;;10.05;8.65;;;;;;;19.81;72.57;99991.97;1659677;83;28322;-77
2021/07/01 04:36:23;;;;;;;9.28;8.38;;;;;;;19.94;72.42;99999.14;1685781;82;25936;-77
2021/07/01 04:38:51;;;;;;;8.95;8.00;;;;;;;20.07;71.84;100001.11;1689249;83;25836;-77
2021/07/01 04:41:20;;;;;;;7.83;6.87;;;;;;;20.23;71.54;100000.16;1746994;82;25747;-77
2021/07/01 04:43:49;;;;;;;7.62;6.53;;;;;;;20.37;71.29;99998.59;1688480;81;26001;-77
2021/07/01 04:46:17;;;;;;;7.75;6.20;;;;;;;20.41;70.87;99989.63;1681185;83;27561;-77
2021/07/01 04:48:46;;;;;;;7.55;6.80;;;;;;;20.48;70.79;99990.22;1696298;83;25811;-77
2021/07/01 04:51:13;;;;;;;8.23;6.28;;;;;;;20.52;70.37;99991.31;1723002;82;25873;-77
2021/07/01 04:53:51;;;;;;;6.87;6.22;;;;;;;20.55;69.91;99994.84;1703572;81;26529;-76
2021/07/01 04:56:43;;;;;;;8.40;6.28;;;;;;;20.55;69.53;99986.69;1709146;81;25769;-76
2021/07/01 04:59:15;;;;;;;7.35;6.20;;;;;;;20.64;69.59;99994.62;1725532;81;27511;-76
2021/07/01 05:01:45;;;;;;;7.35;5.75;;;;;;;20.78;69.57;99992.22;1721893;81;26475;-76
2021/07/01 05:04:32;;;;;;;8.95;5.80;;;;;;;20.92;69.35;100004.22;1700654;81;26004;-76
2021/07/01 05:06:59;;;;;;;6.05;5.45;;;;;;;21.06;69.08;100008.66;1725317;81;26096;-77
2021/07/01 05:09:27;;;;;;;7.03;5.62;;;;;;;21.19;68.34;100014.38;1725397;81;25825;-76
2021/07/01 05:11:55;;;;;;;6.03;4.30;;;;;;;21.24;67.95;100018.48;1725132;81;28112;-76
2021/07/01 05:14:22;;;;;;;6.15;4.05;;;;;;;21.34;67.74;100014.97;1675006;81;25906;-77
2021/07/01 05:16:50;;;;;;;3.72;3.30;;;;;;;21.41;66.77;100017.69;1702130;81;25919;-77
2021/07/01 05:19:18;;;;;;;4.25;3.75;;;;;;;21.41;66.31;100019.05;1725881;81;25781;-76
2021/07/01 05:21:49;;;;;;;5.35;4.70;;;;;;;21.38;65.79;100031.05;1726187;81;26074;-78
2021/07/01 05:24:27;;;;;;;3.70;3.40;;;;;;;21.46;66.27;100035.41;1632559;85;28269;-77
2021/07/01 05:27:05;;;;;;;3.12;2.75;;;;;;;21.51;66.15;100030.52;1662024;85;25908;-77
2021/07/01 05:29:36;;;;;;;6.12;3.15;;;;;;;21.51;65.87;100030.52;1703388;81;26048;-77
2021/07/01 05:32:22;;;;;;;3.50;3.20;;;;;;;21.53;65.49;100031.06;1751840;81;26373;-78
2021/07/01 05:35:03;;;;;;;;;;;;;;;21.40;65.15;100028.86;1708308;81;25985;-78
2021/07/01 05:37:32;;;;;;;5.47;3.92;;;;;;;21.33;64.88;100027.77;1752469;81;27558;-77
2021/07/01 05:40:01;;;;;;;6.25;3.98;;;;;;;21.24;65.38;100036.19;1753449;81;25759;-77
2021/07/01 05:42:28;;;;;;;3.17;2.80;;;;;;;21.22;65.46;100035.64;1701300;81;26618;-78
2021/07/01 05:44:55;;;;;;;3.60;2.75;;;;;;;21.26;65.92;100040.00;1671883;81;25852;-77
2021/07/01 05:47:23;;;;;;;4.72;3.58;;;;;;;21.34;66.05;100041.64;1730256;81;26631;-77
2021/07/01 05:49:50;;;;;;;3.02;2.83;;;;;;;21.42;65.71;100038.41;1755923;81;27622;-77
2021/07/01 05:52:25;;;;;;;4.37;2.87;;;;;;;21.39;65.33;100042.20;1706219;81;25920;-77
2021/07/01 05:54:55;;;;;;;5.58;3.55;;;;;;;21.30;64.74;100043.28;1706441;81;25926;-77
2021/07/01 05:57:24;;;;;;;6.08;4.65;;;;;;;21.19;64.51;100049.79;1755696;81;26152;-77
2021/07/01 05:59:51;;;;;;;3.40;3.10;;;;;;;21.12;64.41;100053.87;1756090;81;25852;-77
2021/07/01 06:02:18;;;;;;;4.53;3.55;;;;;;;21.00;64.55;100054.06;1730162;81;28524;-77
2021/07/01 06:04:45;;;;;;;5.50;4.33;;;;;;;20.95;64.87;100047.80;1682124;81;25922;-77
2021/07/01 06:07:31;;;;;;;9.63;5.10;;;;;;;20.94;65.13;100042.89;1756020;81;25898;-77
2021/07/01 06:10:01;;;;;;;3.47;3.08;;;;;;;20.91;65.35;100043.45;1756022;80;26108;-78
2021/07/01 06:12:33;;;;;;;4.05;3.20;;;;;;;20.87;65.44;100034.72;1705723;81;26509;-77
2021/07/01 06:15:02;;;;;;;6.08;3.50;;;;;;;20.88;65.82;100037.16;1660776;83;27561;-78
2021/07/01 06:17:35;;;;;;;7.72;4.22;;;;;;;20.88;65.95;100037.70;1725859;83;25860;-77
2021/07/01 06:20:07;;;;;;;4.03;3.05;;;;;;;20.90;65.76;100044.52;1702265;83;25928;-78
2021/07/01 06:22:35;;;;;;;2.92;2.65;;;;;;;20.90;65.63;100045.88;1655450;83;26271;-77
2021/07/01 06:25:06;;;;;;;6.70;3.80;;;;;;;20.94;65.91;100044.25;1650817;83;25771;-77
2021/07/01 06:27:34;;;;;;;6.70;4.37;;;;;;;20.98;66.05;100035.82;1725970;83;27444;-77
2021/07/01 06:30:08;;;;;;;4.90;3.60;;;;;;;21.06;66.27;100037.25;1725599;83;25736;-77
2021/07/01 06:32:38;;;;;;;5.28;3.42;;;;;;;21.13;66.11;100038.61;1701483;83;25982;-77
2021/07/01 06:35:03;;;;;;;5.17;2.70;;;;;;;21.20;66.04;100033.73;1677430;83;26064;-78
2021/07/01 06:37:33;;;;;;;4.00;3.58;;;;;;;21.26;66.15;100024.48;1725962;83;25767;-78
2021/07/01 06:40:20;;;;;;;8.55;5.72;;;;;;;21.35;65.81;100023.40;1725846;83;27481;-78
2021/07/01 06:43:05;;;;;;;4.58;3.67;;;;;;;21.42;65.50;100032.96;1684751;83;25889;-77
2021/07/01 06:45:56;;;;;;;3.52;2.85;;;;;;;21.53;65.76;100046.05;1680355;83;26411;-77
2021/07/01 06:48:43;;;;;;;5.00;3.80;;;;;;;21.66;65.88;100055.59;1725516;81;25810;-78
2021/07/01 06:51:37;;;;;;;4.85;3.70;;;;;;;21.75;65.75;100047.94;1725591;83;25877;-77
2021/07/01 06:54:24;;;;;;;4.92;4.35;;;;;;;21.84;65.66;100046.34;1725820;83;27339;-77
2021/07/01 06:57:10;;;;;;;4.90;4.37;;;;;;;21.86;65.56;100051.52;1680763;83;25807;-77
2021/07/01 06:59:39;;;;;;;7.78;4.65;;;;;;;21.89;65.84;100053.16;1725310;81;26503;-77
2021/07/01 07:02:08;;;;;;;6.70;5.55;;;;;;;21.93;65.83;100059.70;1725145;83;25775;-77
2021/07/01 07:04:36;;;;;;;7.30;4.67;;;;;;;21.99;65.44;100055.88;1677436;83;26588;-77
2021/07/01 07:07:04;;;;;;;4.83;3.92;;;;;;;22.02;65.56;100059.43;1700445;83;27523;-77
2021/07/01 07:09:32;;;;;;;8.33;3.47;;;;;;;22.10;65.22;100063.50;1725617;83;25890;-77
2021/07/01 07:11:59;;;;;;;5.42;4.12;;;;;;;22.19;65.31;100061.85;1725531;82;25823;-77
2021/07/01 07:14:26;;;;;;;4.28;3.85;;;;;;;22.24;64.59;100072.73;1677776;83;26399;-77
2021/07/01 07:16:57;;;;;;;5.50;4.65;;;;;;;22.28;64.37;100068.93;1677586;83;26339;-77
2021/07/01 07:19:26;;;;;;;7.60;4.62;;;;;;;22.31;64.33;100067.81;1725853;83;27505;-77
2021/07/01 07:21:53;;;;;;;4.20;3.80;;;;;;;22.37;64.08;100064.55;1725734;83;25813;-77
2021/07/01 07:24:21;;;;;;;4.92;4.17;;;;;;;22.43;64.27;100056.61;1676524;83;26713;-78
2021/07/01 07:26:53;;;;;;;4.80;3.62;;;;;;;22.57;63.63;100061.20;1701683;83;25971;-77
2021/07/01 07:29:23;;;;;;;5.12;4.25;;;;;;;22.62;63.11;100063.13;1701307;83;26530;-77
2021/07/01 07:31:52;;;;;;;3.60;3.30;;;;;;;22.68;63.46;100059.28;1725783;83;27476;-77
2021/07/01 07:34:19;;;;;;;6.90;3.98;;;;;;;22.75;62.49;100061.18;1701368;83;25890;-77
2021/07/01 07:36:46;;;;;;;5.72;4.80;;;;;;;22.83;61.81;100049.66;1701407;83;25893;-77
2021/07/01 07:39:13;;;;;;;4.72;4.03;;;;;;;22.92;62.14;100048.78;1725955;83;26671;-77
2021/07/01 07:41:41;;;;;;;4.55;3.35;;;;;;;23.05;62.43;100053.39;1701081;83;25391;-78
2021/07/01 07:44:08;;;;;;;6.03;3.72;;;;;;;23.15;62.22;100054.14;1673381;83;28157;-77
2021/07/01 07:46:35;;;;;;;6.30;3.90;;;;;;;23.20;60.64;100051.39;1701128;83;25888;-78
2021/07/01 07:49:02;;;;;;;3.80;3.15;;;;;;;23.21;60.74;100050.81;1725321;83;25836;-78
2021/07/01 07:51:33;;;;;;;3.33;2.85;;;;;;;23.22;60.78;100049.73;1725692;83;25788;-78
2021/07/01 07:54:06;;;;;;;3.65;3.35;;;;;;;23.29;60.93;100046.94;1700067;83;26017;-77
2021/07/01 07:56:37;;;;;;;4.05;3.65;;;;;;;23.36;60.21;100040.64;1701359;83;27378;-78
2021/07/01 07:59:12;;;;;;;3.37;2.83;;;;;;;23.43;59.78;100035.69;1725631;83;25997;-77
2021/07/01 08:01:42;;;;;;;6.37;3.47;;;;;;;23.57;59.65;100043.49;1700831;83;25996;-77
2021/07/01 08:04:12;;;;;;;5.80;3.47;;;;;;;23.61;59.55;100046.45;1677295;83;26508;-77
2021/07/01 08:06:43;;;;;;;6.87;3.17;;;;;;;23.71;59.25;100043.13;1699407;83;25908;-77
2021/07/01 08:09:09;;;;;;;7.77;4.83;;;;;;;23.84;58.85;100052.58;1701374;83;27660;-77
2021/07/01 08:11:40;;;;;;;8.58;4.47;;;;;;;23.94;58.86;100056.59;1725199;81;25922;-78
2021/07/01 08:14:08;;;;;;;6.37;4.30;;;;;;;24.05;58.44;100055.43;1711055;81;25797;-78
2021/07/01 08:16:36;;;;;;;3.62;3.15;;;;;;;24.17;58.02;100052.28;1701095;81;25820;-78
2021/07/01 08:19:03;;;;;;;5.17;3.20;;;;;;;24.21;57.65;100050.59;1732162;81;26465;-77
2021/07/01 08:21:31;;;;;;;5.28;3.90;;;;;;;24.30;57.67;100045.58;1740200;81;27658;-77
2021/07/01 08:23:58;;;;;;;4.10;3.10;;;;;;;24.41;57.14;100059.44;1674084;81;26083;-78
2021/07/01 08:26:25;;;;;;;5.75;3.27;;;;;;;24.49;57.77;100058.79;1690160;81;26607;-76
2021/07/01 08:28:54;;;;;;;5.45;3.85;;;;;;;24.59;56.98;100052.39;1740771;81;26649;-78
2021/07/01 08:31:22;;;;;;;5.62;4.72;;;;;;;24.61;56.67;100049.35;1741980;81;25759;-78
2021/07/01 08:33:50;;;;;;;5.40;4.42;;;;;;;24.58;55.95;100054.85;1677186;81;28274;-77
2021/07/01 08:36:21;;;;;;;4.05;3.65;;;;;;;24.44;55.83;100051.98;1669706;81;25851;-77
2021/07/01 08:38:51;;;;;;;4.35;2.95;;;;;;;24.39;56.11;100049.88;1741115;81;26536;-77
2021/07/01 08:41:25;;;;;;;7.10;3.58;;;;;;;24.40;55.95;100046.05;1738923;81;26781;-78
2021/07/01 08:44:05;;;;;;;3.45;2.50;;;;;;;24.34;55.81;100035.69;1714031;81;25947;-78
2021/07/01 08:46:55;;;;;;;2.50;2.30;;;;;;;24.33;55.69;100036.80;1709226;82;28087;-78
2021/07/01 08:49:47;;;;;;;4.80;2.87;;;;;;;24.31;54.98;100030.81;1699781;81;25838;-78
2021/07/01 08:52:15;;;;;;;3.52;2.50;;;;;;;24.40;56.11;100022.77;1697144;82;26721;-77
2021/07/01 08:54:46;;;;;;;3.47;2.50;;;;;;;24.50;55.58;100020.73;1677038;84;25864;-78
2021/07/01 08:57:14;;;;;;;3.25;2.95;;;;;;;24.49;55.08;100024.56;1654255;84;26501;-77
2021/07/01 08:59:57;;;;;;;3.83;2.62;;;;;;;24.43;54.67;100029.84;1697287;84;27450;-78
2021/07/01 09:02:38;;;;;;;4.22;2.62;;;;;;;24.45;55.28;100037.20;1696976;82;25827;-78
2021/07/01 09:05:15;;;;;;;4.62;3.22;;;;;;;24.45;54.55;100034.47;1674790;84;25972;-77
2021/07/01 09:07:52;;;;;;;4.80;2.35;;;;;;;24.43;55.00;100042.16;1677140;84;25801;-77
2021/07/01 09:10:21;;;;;;;3.98;2.50;;;;;;;24.45;54.74;100044.59;1677390;84;25982;-77
2021/07/01 09:12:58;;;;;;;2.87;2.50;;;;;;;24.51;54.73;100042.88;1677044;84;27641;-78
2021/07/01 09:15:27;;;;;;;5.10;2.62;;;;;;;24.49;53.97;100045.09;1685383;82;25893;-77
2021/07/01 09:17:55;;;;;;;2.95;2.75;;;;;;;24.46;54.64;100051.72;1732283;82;25949;-77
2021/07/01 09:20:27;;;;;;;2.47;2.27;;;;;;;24.48;53.48;100044.03;1702372;82;25910;-78
2021/07/01 09:22:57;;;;;;;3.52;2.55;;;;;;;24.56;54.44;100044.75;1657776;82;26634;-77
2021/07/01 09:25:25;;;;;;;5.30;2.70;;;;;;;24.70;54.61;100042.92;1707482;82;28347;-77
2021/07/01 09:27:54;;;;;;;4.83;2.70;;;;;;;24.82;53.36;100038.44;1731829;82;25893;-77
2021/07/01 09:30:26;;;;;;;3.52;2.83;;;;;;;24.83;53.08;100040.87;1703099;82;25790;-77
2021/07/01 09:33:01;;;;;;;4.05;2.10;;;;;;;24.86;53.59;100051.25;1703147;82;26029;-77
2021/07/01 09:35:31;;;;;;;3.70;2.60;;;;;;;24.92;54.42;100051.98;1702820;82;25744;-77
2021/07/01 09:38:03;;;;;;;5.15;2.80;;;;;;;25.08;53.73;100047.95;1732715;82;27625;-77
2021/07/01 09:40:33;;;;;;;3.83;2.65;;;;;;;25.24;53.51;100044.69;1702962;82;25817;-77
2021/07/01 09:43:04;;;;;;;2.45;2.20;;;;;;;25.25;51.97;100041.41;1657692;82;25976;-77
2021/07/01 09:45:33;;;;;;;4.58;3.33;;;;;;;25.25;52.56;100038.11;1703243;82;26500;-77
2021/07/01 09:48:13;;;;;;;3.37;2.50;;;;;;;25.34;51.43;100045.11;1732122;81;25739;-77
2021/07/01 09:50:48;;;;;;;3.20;2.52;;;;;;;25.37;51.37;100045.88;1702667;82;28252;-77
2021/07/01 09:53:33;;;;;;;3.50;2.20;;;;;;;25.42;51.18;100032.67;1658933;82;25835;-77
2021/07/01 09:56:09;;;;;;;3.30;2.40;;;;;;;25.45;52.13;100030.14;1703138;82;25796;-77
2021/07/01 09:58:43;;;;;;;4.00;2.58;;;;;;;25.57;51.54;100025.03;1732099;82;25785;-77
2021/07/01 10:01:26;;;;;;;2.95;2.00;;;;;;;25.65;50.43;100013.92;1678132;82;25941;-77
2021/07/01 10:03:56;;;;;;;2.95;2.30;;;;;;;25.70;51.20;100020.15;1678557;82;28158;-77
2021/07/01 10:06:24;;;;;;;3.33;2.07;;;;;;;25.80;50.32;100021.34;1703403;82;25305;-78
2021/07/01 10:08:53;;;;;;;4.15;1.80;;;;;;;25.86;51.42;100020.68;1732104;82;26384;-77
2021/07/01 10:11:42;;;;;;;2.02;1.82;;;;;;;25.92;50.41;100006.57;1702596;82;26576;-77
2021/07/01 10:14:14;;;;;;;3.12;2.12;;;;;;;25.96;51.50;100007.59;1732176;81;26078;-77
2021/07/01 10:16:42;;;;;;;3.05;1.85;;;;;;;26.08;49.98;100015.90;1703115;82;28210;-77
2021/07/01 10:19:13;;;;;;;4.35;2.12;;;;;;;26.18;49.63;100008.88;1732093;82;26003;-76
2021/07/01 10:21:40;;;;;;;2.05;1.85;;;;;;;26.19;48.73;100009.14;1725724;82;26014;-77
2021/07/01 10:24:17;;;;;;;4.60;2.70;;;;;;;26.16;49.90;100009.19;1679723;81;25882;-77
2021/07/01 10:26:50;;;;;;;3.25;2.47;;;;;;;26.19;49.47;100009.96;1679803;82;25900;-76
2021/07/01 10:29:19;;;;;;;2.50;2.30;;;;;;;26.13;48.72;100007.61;1731885;82;27143;-77
2021/07/01 10:31:56;;;;;;;4.65;2.33;;;;;;;26.07;48.85;100006.05;1726993;82;25339;-77
2021/07/01 10:34:27;;;;;;;2.83;2.10;;;;;;;26.07;48.82;99999.98;1679808;82;26015;-77
2021/07/01 10:37:19;;;;;;;;;;;;;;;26.11;47.99;100001.03;1729991;81;26509;-77
2021/07/01 10:39:49;;;;;;;3.30;1.62;;;;;;;26.14;48.26;99997.69;1732168;82;25835;-77
2021/07/01 10:42:17;;;;;;;2.05;1.80;;;;;;;26.12;47.17;100006.80;1702199;82;27436;-77
2021/07/01 10:44:46;;;;;;;4.33;3.92;;;;;;;26.13;46.76;100002.95;1702996;82;26123;-76
2021/07/01 10:47:28;;;;;;;3.65;2.02;;;;;;;26.15;47.44;100009.50;1711467;81;25361;-77
2021/07/01 10:49:57;;;;;;;6.67;4.58;;;;;;;26.24;47.00;100004.35;1725243;81;25817;-77
2021/07/01 10:52:44;;;;;;;2.35;1.80;;;;;;;26.30;46.13;100005.91;1701195;81;25890;-77
2021/07/01 10:55:15;;;;;;;1.92;1.82;;;;;;;26.36;47.67;100006.61;1727250;81;27469;-77
2021/07/01 10:57:56;;;;;;;2.17;1.90;;;;;;;26.28;47.00;100004.00;1724981;81;26641;-77
2021/07/01 11:00:42;;;;;;;3.65;3.30;;;;;;;26.25;47.27;100020.27;1753250;81;25820;-77
2021/07/01 11:03:22;;;;;;;2.58;2.22;;;;;;;26.28;47.18;100012.81;1694329;81;25854;-76
2021/07/01 11:05:50;;;;;;;3.03;1.67;;;;;;;26.35;47.74;100020.07;1725543;81;26294;-77
2021/07/01 11:08:36;;;;;;;1.98;1.62;;;;;;;26.33;46.85;100020.94;1725041;81;27646;-77
2021/07/01 11:11:20;;;;;;;2.92;2.42;;;;;;;26.35;47.58;100014.58;1752425;81;25853;-77
2021/07/01 11:14:01;;;;;;;3.92;1.82;;;;;;;26.46;46.90;100009.14;1697595;81;25336;-77
2021/07/01 11:16:42;;;;;;;5.97;2.50;;;;;;;26.57;47.38;100004.52;1707737;83;26034;-77
2021/07/01 11:19:11;;;;;;;;;;;;;;;26.64;47.68;100009.61;1698076;83;26647;-77
2021/07/01 11:21:53;;;;;;;1.85;1.75;;;;;;;26.77;45.94;100008.81;1694102;83;27310;-77
2021/07/01 11:24:26;;;;;;;2.00;1.62;;;;;;;26.79;47.03;100009.31;1695591;83;26718;-77
2021/07/01 11:27:01;;;;;;;2.00;1.75;;;;;;;26.88;46.87;100009.41;1695293;83;25995;-76
2021/07/01 11:29:43;;;;;;;4.25;1.85;;;;;;;26.90;45.68;100014.03;1722391;83;25917;-77
2021/07/01 11:32:24;;;;;;;1.95;1.72;;;;;;;26.95;45.76;100016.65;1688924;83;25857;-77
2021/07/01 11:34:54;;;;;;;2.72;2.00;;;;;;;26.99;46.24;100014.94;1673058;83;27064;-77
2021/07/01 11:37:39;;;;;;;2.42;2.17;;;;;;;26.94;45.36;100017.23;1698468;83;26405;-77
2021/07/01 11:40:22;;;;;;;3.15;1.82;;;;;;;26.88;45.35;100021.77;1722896;83;25368;-77
2021/07/01 11:42:50;;;;;;;3.27;1.62;;;;;;;26.84;44.86;100023.52;1689365;83;26452;-77
2021/07/01 11:45:19;;;;;;;5.33;3.20;;;;;;;26.86;45.77;100020.69;1671649;83;25831;-77
2021/07/01 11:47:47;;;;;;;1.85;1.60;;;;;;;26.98;46.37;100031.98;1663020;84;28236;-76
2021/07/01 11:50:14;;;;;;;3.47;2.15;;;;;;;27.13;46.05;100022.02;1677455;84;25867;-77